sensor_id;sensor_type;location;lat;lon;timestamp;P1;durP1;ratioP1;P2;durP2;ratioP2
53644;SDS011;39547;45.554;12.068;2022-12-01T00:03:48;41.90;;;22.27;;
53644;SDS011;39547;45.554;12.068;2022-12-01T00:09:49;37.10;;;20.38;;
53644;SDS011;39547;45.554;12.068;2022-12-01T00:22:15;37.22;;;19.55;;
53644;SDS011;39547;45.554;12.068;2022-12-01T00:28:16;38.83;;;20.98;;
53644;SDS011;39547;45.554;12.068;2022-12-01T00:34:22;40.00;;;19.83;;
53644;SDS011;39547;45.554;12.068;2022-12-01T00:40:25;36.13;;;20.58;;
53644;SDS011;39547;45.554;12.068;2022-12-01T00:46:26;35.65;;;19.48;;
53644;SDS011;39547;45.554;12.068;2022-12-01T00:52:27;38.88;;;21.08;;
53644;SDS011;39547;45.554;12.068;2022-12-01T00:58:29;39.13;;;21.00;;
53644;SDS011;39547;45.554;12.068;2022-12-01T01:04:31;35.70;;;19.40;;
53644;SDS011;39547;45.554;12.068;2022-12-01T01:10:36;38.50;;;20.58;;
53644;SDS011;39547;45.554;12.068;2022-12-01T01:16:42;37.63;;;20.25;;
53644;SDS011;39547;45.554;12.068;2022-12-01T01:22:44;41.15;;;21.77;;
53644;SDS011;39547;45.554;12.068;2022-12-01T01:28:46;36.10;;;19.25;;
53644;SDS011;39547;45.554;12.068;2022-12-01T01:34:48;40.22;;;21.67;;
53644;SDS011;39547;45.554;12.068;2022-12-01T01:40:49;41.15;;;22.58;;
53644;SDS011;39547;45.554;12.068;2022-12-01T01:46:51;36.70;;;20.55;;
53644;SDS011;39547;45.554;12.068;2022-12-01T01:52:56;36.20;;;20.55;;
53644;SDS011;39547;45.554;12.068;2022-12-01T01:59:02;40.65;;;22.33;;
53644;SDS011;39547;45.554;12.068;2022-12-01T02:05:04;36.85;;;19.83;;
53644;SDS011;39547;45.554;12.068;2022-12-01T02:17:29;44.40;;;24.75;;
53644;SDS011;39547;45.554;12.068;2022-12-01T02:30:59;38.13;;;21.02;;
53644;SDS011;39547;45.554;12.068;2022-12-01T02:36:54;40.20;;;21.92;;
53644;SDS011;39547;45.554;12.068;2022-12-01T02:43:02;41.88;;;22.15;;
53644;SDS011;39547;45.554;12.068;2022-12-01T02:49:15;37.50;;;20.77;;
53644;SDS011;39547;45.554;12.068;2022-12-01T02:55:19;33.45;;;18.52;;
53644;SDS011;39547;45.554;12.068;2022-12-01T03:07:52;37.42;;;19.80;;
53644;SDS011;39547;45.554;12.068;2022-12-01T03:14:16;35.17;;;19.42;;
53644;SDS011;39547;45.554;12.068;2022-12-01T03:26:43;31.75;;;17.33;;
53644;SDS011;39547;45.554;12.068;2022-12-01T03:32:48;31.10;;;16.23;;
53644;SDS011;39547;45.554;12.068;2022-12-01T03:38:56;34.03;;;17.55;;
53644;SDS011;39547;45.554;12.068;2022-12-01T03:45:04;30.10;;;16.52;;
53644;SDS011;39547;45.554;12.068;2022-12-01T03:57:39;33.95;;;18.05;;
53644;SDS011;39547;45.554;12.068;2022-12-01T04:03:44;36.45;;;17.85;;
53644;SDS011;39547;45.554;12.068;2022-12-01T04:09:47;35.67;;;17.67;;
53644;SDS011;39547;45.554;12.068;2022-12-01T04:15:49;34.65;;;18.35;;
53644;SDS011;39547;45.554;12.068;2022-12-01T04:21:55;32.95;;;17.58;;
53644;SDS011;39547;45.554;12.068;2022-12-01T04:27:56;34.17;;;17.88;;
53644;SDS011;39547;45.554;12.068;2022-12-01T04:33:58;34.58;;;18.35;;
53644;SDS011;39547;45.554;12.068;2022-12-01T04:39:59;34.03;;;17.80;;
53644;SDS011;39547;45.554;12.068;2022-12-01T04:46:01;36.17;;;19.13;;
53644;SDS011;39547;45.554;12.068;2022-12-01T04:52:03;37.50;;;18.83;;
53644;SDS011;39547;45.554;12.068;2022-12-01T04:58:05;34.50;;;18.73;;
53644;SDS011;39547;45.554;12.068;2022-12-01T05:04:06;37.40;;;19.98;;
53644;SDS011;39547;45.554;12.068;2022-12-01T05:10:12;35.72;;;18.20;;
53644;SDS011;39547;45.554;12.068;2022-12-01T05:16:23;33.38;;;18.30;;
53644;SDS011;39547;45.554;12.068;2022-12-01T05:22:27;34.35;;;18.38;;
53644;SDS011;39547;45.554;12.068;2022-12-01T05:28:28;33.45;;;18.20;;
53644;SDS011;39547;45.554;12.068;2022-12-01T05:34:30;39.30;;;20.63;;
53644;SDS011;39547;45.554;12.068;2022-12-01T05:40:31;47.42;;;24.58;;
53644;SDS011;39547;45.554;12.068;2022-12-01T05:46:33;37.95;;;21.05;;
53644;SDS011;39547;45.554;12.068;2022-12-01T05:52:35;39.42;;;20.80;;
53644;SDS011;39547;45.554;12.068;2022-12-01T05:58:36;33.25;;;18.48;;
53644;SDS011;39547;45.554;12.068;2022-12-01T06:04:38;40.65;;;21.98;;
53644;SDS011;39547;45.554;12.068;2022-12-01T06:10:39;32.17;;;17.45;;
53644;SDS011;39547;45.554;12.068;2022-12-01T06:16:41;38.15;;;21.70;;
53644;SDS011;39547;45.554;12.068;2022-12-01T06:22:42;38.03;;;20.98;;
53644;SDS011;39547;45.554;12.068;2022-12-01T06:28:43;38.85;;;21.67;;
53644;SDS011;39547;45.554;12.068;2022-12-01T06:34:45;45.78;;;23.10;;
53644;SDS011;39547;45.554;12.068;2022-12-01T06:40:46;50.80;;;25.10;;
53644;SDS011;39547;45.554;12.068;2022-12-01T06:46:47;45.70;;;22.65;;
53644;SDS011;39547;45.554;12.068;2022-12-01T06:52:52;43.08;;;21.75;;
53644;SDS011;39547;45.554;12.068;2022-12-01T06:58:54;41.78;;;21.70;;
53644;SDS011;39547;45.554;12.068;2022-12-01T07:04:57;43.88;;;20.58;;
53644;SDS011;39547;45.554;12.068;2022-12-01T07:11:02;37.53;;;19.17;;
53644;SDS011;39547;45.554;12.068;2022-12-01T07:17:07;34.60;;;18.42;;
53644;SDS011;39547;45.554;12.068;2022-12-01T07:23:09;35.78;;;19.10;;
53644;SDS011;39547;45.554;12.068;2022-12-01T07:29:11;37.53;;;19.80;;
53644;SDS011;39547;45.554;12.068;2022-12-01T07:35:12;44.15;;;21.75;;
53644;SDS011;39547;45.554;12.068;2022-12-01T07:41:14;34.72;;;19.00;;
53644;SDS011;39547;45.554;12.068;2022-12-01T07:47:19;32.85;;;17.52;;
53644;SDS011;39547;45.554;12.068;2022-12-01T07:53:20;36.28;;;18.90;;
53644;SDS011;39547;45.554;12.068;2022-12-01T07:59:23;34.97;;;18.42;;
53644;SDS011;39547;45.554;12.068;2022-12-01T08:05:24;34.05;;;18.10;;
53644;SDS011;39547;45.554;12.068;2022-12-01T08:11:26;33.88;;;17.17;;
53644;SDS011;39547;45.554;12.068;2022-12-01T08:17:29;30.45;;;15.55;;
53644;SDS011;39547;45.554;12.068;2022-12-01T08:23:31;28.25;;;14.10;;
53644;SDS011;39547;45.554;12.068;2022-12-01T08:29:33;25.50;;;13.55;;
53644;SDS011;39547;45.554;12.068;2022-12-01T08:35:35;26.17;;;12.57;;
53644;SDS011;39547;45.554;12.068;2022-12-01T08:41:37;24.25;;;11.50;;
53644;SDS011;39547;45.554;12.068;2022-12-01T08:47:38;22.13;;;10.70;;
53644;SDS011;39547;45.554;12.068;2022-12-01T08:53:40;20.05;;;9.18;;
53644;SDS011;39547;45.554;12.068;2022-12-01T08:59:44;18.13;;;8.20;;
53644;SDS011;39547;45.554;12.068;2022-12-01T09:05:46;14.27;;;5.43;;
53644;SDS011;39547;45.554;12.068;2022-12-01T09:11:47;13.20;;;4.70;;
53644;SDS011;39547;45.554;12.068;2022-12-01T09:17:49;11.95;;;3.88;;
53644;SDS011;39547;45.554;12.068;2022-12-01T09:23:51;11.52;;;3.38;;
53644;SDS011;39547;45.554;12.068;2022-12-01T09:30:13;10.70;;;3.20;;
53644;SDS011;39547;45.554;12.068;2022-12-01T09:36:34;11.10;;;3.10;;
53644;SDS011;39547;45.554;12.068;2022-12-01T09:42:37;10.35;;;2.97;;
53644;SDS011;39547;45.554;12.068;2022-12-01T09:48:41;11.50;;;2.97;;
53644;SDS011;39547;45.554;12.068;2022-12-01T09:54:45;10.80;;;2.80;;
53644;SDS011;39547;45.554;12.068;2022-12-01T10:00:47;10.95;;;3.30;;
53644;SDS011;39547;45.554;12.068;2022-12-01T10:07:27;10.43;;;3.03;;
53644;SDS011;39547;45.554;12.068;2022-12-01T10:13:31;10.75;;;2.92;;
53644;SDS011;39547;45.554;12.068;2022-12-01T10:19:37;10.63;;;2.90;;
53644;SDS011;39547;45.554;12.068;2022-12-01T10:25:56;10.82;;;2.90;;
53644;SDS011;39547;45.554;12.068;2022-12-01T10:32:12;10.18;;;2.80;;
53644;SDS011;39547;45.554;12.068;2022-12-01T10:38:31;10.40;;;3.00;;
53644;SDS011;39547;45.554;12.068;2022-12-01T10:44:35;11.82;;;3.35;;
53644;SDS011;39547;45.554;12.068;2022-12-01T10:50:37;11.23;;;3.22;;
53644;SDS011;39547;45.554;12.068;2022-12-01T10:57:12;11.05;;;3.20;;
53644;SDS011;39547;45.554;12.068;2022-12-01T11:03:18;11.10;;;3.30;;
53644;SDS011;39547;45.554;12.068;2022-12-01T11:09:24;11.60;;;3.80;;
53644;SDS011;39547;45.554;12.068;2022-12-01T11:15:32;11.50;;;3.67;;
53644;SDS011;39547;45.554;12.068;2022-12-01T11:21:47;11.50;;;3.58;;
53644;SDS011;39547;45.554;12.068;2022-12-01T11:27:51;11.90;;;3.47;;
53644;SDS011;39547;45.554;12.068;2022-12-01T11:33:57;11.25;;;3.17;;
53644;SDS011;39547;45.554;12.068;2022-12-01T11:46:27;11.00;;;3.25;;
53644;SDS011;39547;45.554;12.068;2022-12-01T11:52:44;11.50;;;3.30;;
53644;SDS011;39547;45.554;12.068;2022-12-01T11:58:47;11.68;;;3.20;;
53644;SDS011;39547;45.554;12.068;2022-12-01T12:24:36;11.02;;;3.10;;
53644;SDS011;39547;45.554;12.068;2022-12-01T12:30:49;10.65;;;2.88;;
53644;SDS011;39547;45.554;12.068;2022-12-01T12:37:18;10.35;;;3.00;;
53644;SDS011;39547;45.554;12.068;2022-12-01T13:02:20;12.70;;;3.50;;
53644;SDS011;39547;45.554;12.068;2022-12-01T13:14:53;11.98;;;3.65;;
53644;SDS011;39547;45.554;12.068;2022-12-01T13:20:59;11.85;;;3.70;;
53644;SDS011;39547;45.554;12.068;2022-12-01T13:27:12;13.70;;;4.67;;
53644;SDS011;39547;45.554;12.068;2022-12-01T13:33:18;12.80;;;3.97;;
53644;SDS011;39547;45.554;12.068;2022-12-01T13:45:25;12.63;;;4.18;;
53644;SDS011;39547;45.554;12.068;2022-12-01T14:10:20;18.25;;;6.40;;
53644;SDS011;39547;45.554;12.068;2022-12-01T14:16:45;14.30;;;5.10;;
53644;SDS011;39547;45.554;12.068;2022-12-01T14:29:33;12.90;;;4.60;;
53644;SDS011;39547;45.554;12.068;2022-12-01T14:35:38;12.40;;;4.00;;
53644;SDS011;39547;45.554;12.068;2022-12-01T14:41:47;11.40;;;3.47;;
53644;SDS011;39547;45.554;12.068;2022-12-01T14:47:54;11.50;;;3.45;;
53644;SDS011;39547;45.554;12.068;2022-12-01T14:54:01;10.80;;;3.20;;
53644;SDS011;39547;45.554;12.068;2022-12-01T15:00:13;11.52;;;3.20;;
53644;SDS011;39547;45.554;12.068;2022-12-01T15:06:36;11.32;;;3.10;;
53644;SDS011;39547;45.554;12.068;2022-12-01T15:12:37;10.38;;;3.15;;
53644;SDS011;39547;45.554;12.068;2022-12-01T15:18:39;11.98;;;3.10;;
53644;SDS011;39547;45.554;12.068;2022-12-01T15:24:41;10.85;;;3.30;;
53644;SDS011;39547;45.554;12.068;2022-12-01T15:30:48;11.50;;;3.47;;
53644;SDS011;39547;45.554;12.068;2022-12-01T15:36:52;11.27;;;3.38;;
53644;SDS011;39547;45.554;12.068;2022-12-01T15:43:05;11.68;;;3.80;;
53644;SDS011;39547;45.554;12.068;2022-12-01T15:49:23;12.50;;;3.95;;
53644;SDS011;39547;45.554;12.068;2022-12-01T15:55:29;11.88;;;3.70;;
53644;SDS011;39547;45.554;12.068;2022-12-01T16:01:32;12.57;;;4.43;;
53644;SDS011;39547;45.554;12.068;2022-12-01T16:07:35;12.45;;;4.50;;
53644;SDS011;39547;45.554;12.068;2022-12-01T16:13:38;13.30;;;4.53;;
53644;SDS011;39547;45.554;12.068;2022-12-01T16:19:42;12.98;;;4.70;;
53644;SDS011;39547;45.554;12.068;2022-12-01T16:25:45;13.00;;;5.18;;
53644;SDS011;39547;45.554;12.068;2022-12-01T16:31:48;14.88;;;4.97;;
53644;SDS011;39547;45.554;12.068;2022-12-01T16:37:51;13.80;;;5.25;;
53644;SDS011;39547;45.554;12.068;2022-12-01T16:43:53;16.15;;;6.55;;
53644;SDS011;39547;45.554;12.068;2022-12-01T16:49:54;15.75;;;6.60;;
53644;SDS011;39547;45.554;12.068;2022-12-01T16:55:57;16.73;;;7.15;;
53644;SDS011;39547;45.554;12.068;2022-12-01T17:02:00;20.53;;;9.70;;
53644;SDS011;39547;45.554;12.068;2022-12-01T17:08:09;20.67;;;8.45;;
53644;SDS011;39547;45.554;12.068;2022-12-01T17:14:11;20.67;;;9.50;;
53644;SDS011;39547;45.554;12.068;2022-12-01T17:20:12;20.77;;;9.35;;
53644;SDS011;39547;45.554;12.068;2022-12-01T17:26:14;25.48;;;13.10;;
53644;SDS011;39547;45.554;12.068;2022-12-01T17:32:17;25.45;;;13.20;;
53644;SDS011;39547;45.554;12.068;2022-12-01T17:38:19;27.38;;;15.10;;
53644;SDS011;39547;45.554;12.068;2022-12-01T17:44:20;32.08;;;18.10;;
53644;SDS011;39547;45.554;12.068;2022-12-01T17:50:35;33.58;;;18.90;;
53644;SDS011;39547;45.554;12.068;2022-12-01T17:56:37;30.23;;;16.80;;
53644;SDS011;39547;45.554;12.068;2022-12-01T18:02:39;30.77;;;17.38;;
53644;SDS011;39547;45.554;12.068;2022-12-01T18:08:41;35.50;;;18.92;;
53644;SDS011;39547;45.554;12.068;2022-12-01T18:14:43;29.65;;;16.35;;
53644;SDS011;39547;45.554;12.068;2022-12-01T18:20:44;30.02;;;17.17;;
53644;SDS011;39547;45.554;12.068;2022-12-01T18:26:45;27.33;;;15.65;;
53644;SDS011;39547;45.554;12.068;2022-12-01T18:32:47;33.65;;;18.65;;
53644;SDS011;39547;45.554;12.068;2022-12-01T18:38:49;45.15;;;25.05;;
53644;SDS011;39547;45.554;12.068;2022-12-01T18:44:52;52.03;;;27.50;;
53644;SDS011;39547;45.554;12.068;2022-12-01T18:50:53;40.88;;;23.00;;
53644;SDS011;39547;45.554;12.068;2022-12-01T18:56:55;45.85;;;26.55;;
53644;SDS011;39547;45.554;12.068;2022-12-01T19:02:58;49.83;;;27.70;;
53644;SDS011;39547;45.554;12.068;2022-12-01T19:09:00;53.03;;;30.15;;
53644;SDS011;39547;45.554;12.068;2022-12-01T19:15:04;50.40;;;29.83;;
53644;SDS011;39547;45.554;12.068;2022-12-01T19:21:07;54.55;;;31.48;;
53644;SDS011;39547;45.554;12.068;2022-12-01T19:27:10;49.63;;;29.55;;
53644;SDS011;39547;45.554;12.068;2022-12-01T19:33:11;50.97;;;28.67;;
53644;SDS011;39547;45.554;12.068;2022-12-01T19:39:12;50.75;;;28.42;;
53644;SDS011;39547;45.554;12.068;2022-12-01T19:45:14;46.15;;;25.60;;
53644;SDS011;39547;45.554;12.068;2022-12-01T19:51:16;39.45;;;22.58;;
53644;SDS011;39547;45.554;12.068;2022-12-01T19:57:22;38.63;;;23.40;;
53644;SDS011;39547;45.554;12.068;2022-12-01T20:03:24;35.70;;;19.33;;
53644;SDS011;39547;45.554;12.068;2022-12-01T20:09:25;31.95;;;17.08;;
53644;SDS011;39547;45.554;12.068;2022-12-01T20:15:27;28.80;;;15.20;;
53644;SDS011;39547;45.554;12.068;2022-12-01T20:21:29;29.40;;;15.73;;
53644;SDS011;39547;45.554;12.068;2022-12-01T20:27:32;32.10;;;16.17;;
53644;SDS011;39547;45.554;12.068;2022-12-01T20:33:33;28.92;;;14.60;;
53644;SDS011;39547;45.554;12.068;2022-12-01T20:39:35;28.63;;;14.75;;
53644;SDS011;39547;45.554;12.068;2022-12-01T20:45:38;27.65;;;14.27;;
53644;SDS011;39547;45.554;12.068;2022-12-01T20:51:40;29.35;;;15.18;;
53644;SDS011;39547;45.554;12.068;2022-12-01T20:57:41;26.75;;;14.10;;
53644;SDS011;39547;45.554;12.068;2022-12-01T21:03:44;25.77;;;13.50;;
53644;SDS011;39547;45.554;12.068;2022-12-01T21:09:46;25.05;;;12.88;;
53644;SDS011;39547;45.554;12.068;2022-12-01T21:15:54;26.08;;;12.27;;
53644;SDS011;39547;45.554;12.068;2022-12-01T21:21:55;19.83;;;9.77;;
53644;SDS011;39547;45.554;12.068;2022-12-01T21:27:59;20.52;;;9.85;;
53644;SDS011;39547;45.554;12.068;2022-12-01T21:34:12;18.58;;;8.52;;
53644;SDS011;39547;45.554;12.068;2022-12-01T21:40:24;17.95;;;8.02;;
53644;SDS011;39547;45.554;12.068;2022-12-01T21:46:26;17.20;;;7.40;;
53644;SDS011;39547;45.554;12.068;2022-12-01T21:52:29;16.33;;;7.13;;
53644;SDS011;39547;45.554;12.068;2022-12-01T21:58:36;16.73;;;7.20;;
53644;SDS011;39547;45.554;12.068;2022-12-01T22:04:38;14.10;;;5.70;;
53644;SDS011;39547;45.554;12.068;2022-12-01T22:17:18;14.65;;;5.70;;
53644;SDS011;39547;45.554;12.068;2022-12-01T22:23:21;13.50;;;4.90;;
53644;SDS011;39547;45.554;12.068;2022-12-01T22:29:33;13.48;;;4.50;;
53644;SDS011;39547;45.554;12.068;2022-12-01T22:35:43;12.82;;;4.30;;
53644;SDS011;39547;45.554;12.068;2022-12-01T22:41:48;12.50;;;4.57;;
53644;SDS011;39547;45.554;12.068;2022-12-01T22:47:55;12.27;;;4.00;;
53644;SDS011;39547;45.554;12.068;2022-12-01T22:54:05;14.45;;;4.97;;
53644;SDS011;39547;45.554;12.068;2022-12-01T23:00:18;12.45;;;4.05;;
53644;SDS011;39547;45.554;12.068;2022-12-01T23:13:13;11.18;;;3.20;;
53644;SDS011;39547;45.554;12.068;2022-12-01T23:19:18;11.40;;;3.30;;
53644;SDS011;39547;45.554;12.068;2022-12-01T23:25:20;11.15;;;3.30;;
53644;SDS011;39547;45.554;12.068;2022-12-01T23:31:23;10.27;;;2.80;;
53644;SDS011;39547;45.554;12.068;2022-12-01T23:37:43;9.82;;;2.80;;
53644;SDS011;39547;45.554;12.068;2022-12-01T23:43:47;10.20;;;2.83;;
53644;SDS011;39547;45.554;12.068;2022-12-01T23:50:04;9.32;;;2.67;;
53644;SDS011;39547;45.554;12.068;2022-12-01T23:56:14;8.98;;;2.45;;
